Time;durP1;ratioP1;P1;durP2;ratioP2;P2;SDS_P1;SDS_P2;PMS_P1;PMS_P2;Temp;Humidity;BMP_temperature;BMP_pressure;BME280_temperature;BME280_humidity;BME280_pressure;Samples;Min_cycle;Max_cycle;Signal;HPM_P1;HPM_P2
2023/03/09 00:01:43;;;;;;;5.43;2.20;;;;;;;-0.58;100.00;96842.53;5139305;27;20058;-61
2023/03/09 00:04:13;;;;;;;9.98;2.45;;;;;;;-0.56;100.00;96836.81;5138275;27;20061;-62
2023/03/09 00:06:39;;;;;;;6.22;2.28;;;;;;;-0.56;100.00;96818.75;5138946;28;20078;-60
2023/03/09 00:09:06;;;;;;;4.20;2.05;;;;;;;-0.72;100.00;96815.28;5138676;28;20055;-63
2023/03/09 00:11:32;;;;;;;10.15;2.55;;;;;;;-0.52;100.00;96808.06;5138559;27;20047;-63
2023/03/09 00:13:58;;;;;;;4.47;2.33;;;;;;;-0.58;100.00;96817.53;5138762;27;20047;-61
2023/03/09 00:16:26;;;;;;;5.85;2.65;;;;;;;-0.57;100.00;96809.09;5138533;28;20332;-62
2023/03/09 00:18:53;;;;;;;3.60;2.60;;;;;;;-0.45;100.00;96802.84;5138685;28;20062;-63
2023/03/09 00:21:36;;;;;;;4.15;2.40;;;;;;;-0.48;100.00;96804.31;5138506;28;20135;-62
2023/03/09 00:24:05;;;;;;;5.63;2.17;;;;;;;-0.48;100.00;96803.53;5138807;28;20051;-61
2023/03/09 00:26:31;;;;;;;8.55;2.55;;;;;;;-0.43;100.00;96780.94;5138418;27;20047;-60
2023/03/09 00:28:58;;;;;;;3.55;2.50;;;;;;;-0.36;100.00;96786.50;5138194;27;20046;-61
2023/03/09 00:31:24;;;;;;;4.85;2.28;;;;;;;-0.42;100.00;96779.84;5138594;28;20063;-63
2023/03/09 00:33:50;;;;;;;6.82;2.33;;;;;;;-0.47;100.00;96783.56;5138118;27;20067;-62
2023/03/09 00:36:17;;;;;;;4.78;2.50;;;;;;;-0.53;100.00;96758.84;5138532;27;20047;-61
2023/03/09 00:38:50;;;;;;;12.60;4.22;;;;;;;-0.60;100.00;96737.16;5138352;28;20139;-63
2023/03/09 00:41:16;;;;;;;7.15;3.00;;;;;;;-0.67;100.00;96722.75;5138483;27;20051;-63
2023/03/09 00:43:42;;;;;;;6.47;2.72;;;;;;;-0.59;100.00;96701.03;5138219;28;20051;-61
2023/03/09 00:46:08;;;;;;;5.75;2.78;;;;;;;-0.58;100.00;96686.44;5138371;28;20135;-62
2023/03/09 00:48:36;;;;;;;6.82;2.80;;;;;;;-0.63;100.00;96681.34;5138100;27;20057;-62
2023/03/09 00:51:02;;;;;;;7.63;2.78;;;;;;;-0.64;100.00;96704.00;5138369;28;20437;-63
2023/03/09 00:53:29;;;;;;;8.15;2.95;;;;;;;-0.48;100.00;96693.97;5137935;27;20043;-61
2023/03/09 00:55:56;;;;;;;9.48;3.22;;;;;;;-0.90;100.00;96696.53;5138566;27;20051;-62
2023/03/09 00:58:22;;;;;;;5.47;2.70;;;;;;;-0.62;100.00;96699.03;5137850;27;20132;-62
2023/03/09 01:00:48;;;;;;;9.25;3.28;;;;;;;-0.73;100.00;96671.13;5138012;27;20058;-61
2023/03/09 01:03:14;;;;;;;8.05;2.85;;;;;;;-0.84;100.00;96676.25;5138077;28;20051;-62
2023/03/09 01:05:40;;;;;;;5.80;2.17;;;;;;;-0.99;100.00;96683.25;5137686;27;20061;-61
2023/03/09 01:08:07;;;;;;;5.75;3.15;;;;;;;-0.88;100.00;96670.03;5137862;27;20514;-62
2023/03/09 01:10:33;;;;;;;4.22;2.55;;;;;;;-0.73;100.00;96671.91;5138086;28;20055;-60
2023/03/09 01:13:00;;;;;;;7.18;2.83;;;;;;;-0.59;100.00;96679.50;5137913;27;20408;-62
2023/03/09 01:15:26;;;;;;;6.55;2.85;;;;;;;-0.76;100.00;96671.84;5136638;27;20437;-61
2023/03/09 01:17:52;;;;;;;7.85;2.83;;;;;;;-0.53;100.00;96680.78;5137883;27;20046;-63
2023/03/09 01:20:18;;;;;;;6.28;3.33;;;;;;;-0.37;100.00;96702.25;5137490;28;20053;-61
2023/03/09 01:22:45;;;;;;;9.45;2.72;;;;;;;-0.69;100.00;96676.59;5137947;27;20058;-62
2023/03/09 01:25:11;;;;;;;6.85;3.15;;;;;;;-0.82;100.00;96652.50;5137461;27;20054;-61
2023/03/09 01:27:37;;;;;;;12.05;3.58;;;;;;;-1.15;100.00;96654.81;5137684;28;20043;-63
2023/03/09 01:30:06;;;;;;;9.38;3.70;;;;;;;-1.11;100.00;96637.63;5137416;28;20477;-60
2023/03/09 01:32:32;;;;;;;9.50;3.53;;;;;;;-1.31;100.00;96644.09;5137365;27;20071;-60
2023/03/09 01:34:58;;;;;;;6.68;3.00;;;;;;;-1.13;100.00;96622.97;5137470;27;20404;-61
2023/03/09 01:37:24;;;;;;;5.93;3.30;;;;;;;-1.35;100.00;96619.81;5137194;28;20051;-61
2023/03/09 01:39:51;;;;;;;11.13;3.30;;;;;;;-0.95;100.00;96600.72;5137572;28;20362;-61
2023/03/09 01:42:17;;;;;;;13.98;3.28;;;;;;;-0.80;100.00;96622.53;5137189;28;20076;-62
2023/03/09 01:44:43;;;;;;;6.28;2.70;;;;;;;-0.61;100.00;96651.38;5137520;27;20047;-62
2023/03/09 01:47:10;;;;;;;4.90;2.75;;;;;;;-0.72;100.00;96664.63;5137177;28;20057;-61
2023/03/09 01:49:40;;;;;;;5.97;2.95;;;;;;;-0.60;100.00;96664.50;5137659;28;20047;-61
2023/03/09 01:52:12;;;;;;;6.15;3.38;;;;;;;-0.66;100.00;96662.44;5137100;27;20073;-61
2023/03/09 01:54:45;;;;;;;10.00;3.50;;;;;;;-0.36;100.00;96673.44;5137116;28;20050;-60
2023/03/09 01:57:18;;;;;;;7.05;3.08;;;;;;;-0.36;100.00;96668.84;5137357;27;20112;-60
2023/03/09 01:59:45;;;;;;;7.38;3.13;;;;;;;-0.29;100.00;96670.88;5137076;27;20065;-61
2023/03/09 02:02:14;;;;;;;7.78;3.45;;;;;;;-0.54;100.00;96673.06;5137175;28;20047;-63
2023/03/09 02:04:44;;;;;;;14.48;3.22;;;;;;;-0.40;100.00;96670.69;5137052;27;20138;-62
2023/03/09 02:07:12;;;;;;;9.65;3.67;;;;;;;-0.14;100.00;96686.16;5137215;27;20047;-61
2023/03/09 02:09:46;;;;;;;8.63;2.60;;;;;;;-0.40;100.00;96702.97;5136934;28;20469;-63
2023/03/09 02:12:18;;;;;;;4.53;2.70;;;;;;;-0.30;100.00;96686.28;5137342;27;20047;-62
2023/03/09 02:14:44;;;;;;;7.15;2.90;;;;;;;-0.30;100.00;96682.78;5137153;28;20055;-63
2023/03/09 02:17:12;;;;;;;4.00;2.63;;;;;;;-0.71;100.00;96682.31;5137064;27;20051;-61
2023/03/09 02:19:49;;;;;;;6.40;2.95;;;;;;;-0.54;100.00;96657.69;5136825;28;20043;-60
2023/03/09 02:22:15;;;;;;;6.40;2.80;;;;;;;-0.51;100.00;96650.81;5136691;27;20482;-62
2023/03/09 02:24:53;;;;;;;4.72;2.92;;;;;;;-0.74;100.00;96629.22;5137122;28;20047;-62
2023/03/09 02:27:21;;;;;;;9.15;3.28;;;;;;;-0.71;100.00;96570.09;5140449;27;20107;-62
2023/03/09 02:29:48;;;;;;;4.90;2.75;;;;;;;-0.38;100.00;96533.03;5140688;27;20047;-61
2023/03/09 02:32:15;;;;;;;6.65;1.92;;;;;;;-0.50;100.00;96515.13;5140197;28;20442;-63
2023/03/09 02:34:41;;;;;;;6.10;2.88;;;;;;;-0.51;100.00;96465.13;5140114;27;20051;-64
2023/03/09 02:37:22;;;;;;;3.30;2.10;;;;;;;-0.82;100.00;96423.06;5140102;28;20051;-61
2023/03/09 02:39:50;;;;;;;3.75;2.30;;;;;;;-0.68;100.00;96396.41;5139992;27;20047;-61
2023/03/09 02:42:18;;;;;;;7.28;2.58;;;;;;;-0.85;100.00;96376.16;5140270;27;20139;-63
2023/03/09 02:44:45;;;;;;;3.97;2.55;;;;;;;-1.21;100.00;96355.91;5140182;28;20082;-62
2023/03/09 02:47:17;;;;;;;4.90;2.28;;;;;;;-0.88;100.00;96351.88;5140132;27;20043;-64
2023/03/09 02:49:44;;;;;;;4.47;2.55;;;;;;;-0.96;100.00;96356.38;5140310;27;20108;-62
2023/03/09 02:52:10;;;;;;;7.70;3.17;;;;;;;-1.15;100.00;96361.78;5140378;27;20216;-61
2023/03/09 02:54:37;;;;;;;7.10;2.08;;;;;;;-0.75;100.00;96366.72;5139921;27;20143;-62
2023/03/09 02:57:03;;;;;;;6.03;2.22;;;;;;;-0.91;100.00;96368.72;5140136;27;20047;-62
2023/03/09 02:59:29;;;;;;;3.38;2.78;;;;;;;-0.75;100.00;96366.72;5139710;27;20047;-61
2023/03/09 03:01:56;;;;;;;4.57;2.80;;;;;;;-0.76;100.00;96368.63;5140159;27;20044;-63
2023/03/09 03:04:23;;;;;;;6.28;2.53;;;;;;;-1.06;100.00;96376.56;5139620;27;20046;-60
2023/03/09 03:06:49;;;;;;;3.10;2.03;;;;;;;-1.29;100.00;96381.88;5139919;27;20077;-60
2023/03/09 03:09:15;;;;;;;11.27;3.40;;;;;;;-0.97;100.00;96404.00;5139938;27;20348;-63
2023/03/09 03:11:41;;;;;;;9.98;2.72;;;;;;;-0.89;100.00;96404.91;5139985;27;20047;-61
2023/03/09 03:14:08;;;;;;;3.90;2.30;;;;;;;-1.05;100.00;96404.22;5139709;28;20051;-63
2023/03/09 03:16:34;;;;;;;8.63;2.80;;;;;;;-0.73;100.00;96419.03;5139460;28;20065;-60
2023/03/09 03:19:01;;;;;;;8.48;2.67;;;;;;;-0.86;100.00;96411.47;5139881;28;20323;-59
2023/03/09 03:21:28;;;;;;;8.65;2.50;;;;;;;-0.60;100.00;96414.25;5139316;28;20488;-63
2023/03/09 03:23:54;;;;;;;8.23;3.97;;;;;;;-0.75;100.00;96413.22;5140009;27;20047;-61
2023/03/09 03:26:20;;;;;;;7.80;2.72;;;;;;;-0.77;100.00;96437.03;5139364;28;20082;-62
2023/03/09 03:28:46;;;;;;;5.90;2.92;;;;;;;-0.98;100.00;96458.13;5139845;27;20058;-60
2023/03/09 03:31:13;;;;;;;9.88;2.38;;;;;;;-0.99;100.00;96489.63;5139207;27;20051;-63
2023/03/09 03:33:39;;;;;;;8.88;2.75;;;;;;;-0.92;100.00;96515.09;5139240;27;20435;-60
2023/03/09 03:36:07;;;;;;;6.90;2.70;;;;;;;-0.76;100.00;96562.31;5139115;27;20103;-63
2023/03/09 03:38:33;;;;;;;3.60;1.95;;;;;;;-1.20;100.00;96567.94;5138523;27;20047;-60
2023/03/09 03:40:59;;;;;;;5.68;2.75;;;;;;;-1.08;100.00;96628.09;5139178;27;20055;-63
2023/03/09 03:43:25;;;;;;;3.63;2.65;;;;;;;-0.88;100.00;96701.53;5139261;28;20107;-60
2023/03/09 03:45:52;;;;;;;9.90;3.05;;;;;;;-0.88;100.00;96731.13;5139428;27;20047;-63
2023/03/09 03:48:18;;;;;;;6.45;2.85;;;;;;;-0.97;100.00;96766.25;5138979;28;20358;-61
2023/03/09 03:50:44;;;;;;;3.85;2.65;;;;;;;-1.26;100.00;96807.81;5139251;27;20051;-63
2023/03/09 03:53:11;;;;;;;5.13;3.00;;;;;;;-1.13;100.00;96887.28;5138970;28;20051;-61
2023/03/09 03:55:37;;;;;;;6.50;2.90;;;;;;;-0.92;100.00;96940.06;5139309;28;20047;-62
2023/03/09 03:58:42;;;;;;;5.93;2.75;;;;;;;-1.11;100.00;96954.13;5138853;27;20116;-63
2023/03/09 04:01:08;;;;;;;3.78;2.50;;;;;;;-1.19;100.00;97009.63;5138645;28;20051;-60
2023/03/09 04:03:34;;;;;;;7.25;3.03;;;;;;;-1.05;100.00;97060.34;5139119;27;20043;-61
2023/03/09 04:06:02;;;;;;;8.68;3.30;;;;;;;-1.02;100.00;97075.81;5138652;27;20341;-63
2023/03/09 04:08:29;;;;;;;6.28;3.20;;;;;;;-1.28;100.00;97090.41;5138973;28;20043;-63
2023/03/09 04:10:55;;;;;;;6.85;3.47;;;;;;;-0.83;100.00;97137.06;5138627;28;20062;-61
2023/03/09 04:13:21;;;;;;;9.43;3.40;;;;;;;-1.26;100.00;97092.75;5138923;27;20057;-63
2023/03/09 04:15:48;;;;;;;5.30;2.80;;;;;;;-0.87;100.00;97160.38;5138623;28;20055;-61
2023/03/09 04:18:14;;;;;;;7.03;3.55;;;;;;;-1.03;100.00;97154.94;5138978;28;20070;-63
2023/03/09 04:20:42;;;;;;;9.52;2.92;;;;;;;-0.97;100.00;97173.19;5138506;27;20371;-63
2023/03/09 04:23:08;;;;;;;6.28;2.88;;;;;;;-0.82;100.00;97176.28;5138346;27;20047;-63
2023/03/09 04:25:35;;;;;;;8.20;3.00;;;;;;;-1.03;100.00;97147.63;5138406;27;20058;-63
2023/03/09 04:28:02;;;;;;;7.43;3.35;;;;;;;-0.84;100.00;97179.31;5138593;28;20055;-60
2023/03/09 04:30:28;;;;;;;5.50;2.67;;;;;;;-0.79;100.00;97141.44;5138453;28;20051;-63
2023/03/09 04:32:54;;;;;;;6.32;3.40;;;;;;;-0.89;100.00;97128.44;5138463;28;20046;-60
2023/03/09 04:35:20;;;;;;;11.02;3.80;;;;;;;-0.73;100.00;97123.16;5138384;27;20051;-63
2023/03/09 04:37:47;;;;;;;5.25;3.20;;;;;;;-0.65;100.00;97089.16;5138477;28;20051;-61
2023/03/09 04:40:14;;;;;;;9.65;2.97;;;;;;;-0.66;100.00;97071.44;5138418;27;20051;-58
2023/03/09 04:42:41;;;;;;;6.55;3.08;;;;;;;-0.65;100.00;97063.00;5138047;27;20074;-59
2023/03/09 04:45:08;;;;;;;4.28;2.45;;;;;;;-0.66;100.00;97063.38;5138616;27;20194;-61
2023/03/09 04:47:35;;;;;;;10.70;4.68;;;;;;;-0.56;100.00;97085.19;5137873;28;20082;-61
2023/03/09 04:50:01;;;;;;;10.77;3.50;;;;;;;-0.66;100.00;97061.47;5138398;27;20059;-66
2023/03/09 04:52:27;;;;;;;5.82;3.05;;;;;;;-0.51;100.00;97063.41;5137929;28;20093;-63
2023/03/09 04:54:54;;;;;;;8.50;3.55;;;;;;;-0.51;100.00;97022.25;5138054;28;20301;-68
2023/03/09 04:57:21;;;;;;;8.48;3.67;;;;;;;-0.51;100.00;97011.47;5138136;28;20109;-67
2023/03/09 04:59:48;;;;;;;8.77;4.45;;;;;;;-0.40;100.00;97011.75;5137689;27;20054;-64
2023/03/09 05:02:14;;;;;;;6.63;2.72;;;;;;;-0.38;100.00;96980.66;5138160;28;20057;-60
2023/03/09 05:04:40;;;;;;;10.55;3.67;;;;;;;-0.52;100.00;96935.34;5137502;27;20065;-57
2023/03/09 05:07:07;;;;;;;6.05;2.97;;;;;;;-0.29;100.00;96938.22;5138230;28;20050;-62
2023/03/09 05:09:33;;;;;;;10.63;3.40;;;;;;;-0.37;100.00;96906.06;5137670;28;20043;-59
2023/03/09 05:11:59;;;;;;;9.35;3.03;;;;;;;-0.33;100.00;96910.44;5137966;27;20379;-62
2023/03/09 05:14:25;;;;;;;9.15;2.80;;;;;;;-0.35;100.00;96882.28;5137835;28;20051;-60
2023/03/09 05:16:52;;;;;;;7.82;3.10;;;;;;;-0.35;100.00;96860.75;5137879;27;20097;-62
2023/03/09 05:19:20;;;;;;;6.72;3.30;;;;;;;-0.30;100.00;96845.13;5137380;28;20115;-56
2023/03/09 05:21:46;;;;;;;10.45;3.45;;;;;;;-0.26;100.00;96855.97;5137293;28;20187;-56
2023/03/09 05:24:13;;;;;;;6.53;3.55;;;;;;;-0.50;100.00;96822.75;5137426;27;20147;-59
2023/03/09 05:26:39;;;;;;;6.47;3.55;;;;;;;-0.36;100.00;96816.13;5137307;28;20393;-63
2023/03/09 05:29:06;;;;;;;6.72;3.17;;;;;;;-0.34;100.00;96789.59;5137611;28;20044;-60
2023/03/09 05:31:32;;;;;;;11.82;3.92;;;;;;;-0.29;100.00;96768.59;5137322;27;20127;-57
2023/03/09 05:33:59;;;;;;;10.30;3.00;;;;;;;-0.17;100.00;96775.75;5137480;27;20043;-64
2023/03/09 05:36:26;;;;;;;8.18;3.10;;;;;;;-0.20;100.00;96763.00;5137104;28;20047;-61
2023/03/09 05:38:53;;;;;;;5.15;2.70;;;;;;;-0.29;100.00;96738.19;5137010;27;20110;-63
2023/03/09 05:41:20;;;;;;;7.85;3.22;;;;;;;-0.38;100.00;96757.22;5136951;28;20055;-62
2023/03/09 05:43:46;;;;;;;6.07;3.00;;;;;;;-0.02;100.00;96745.28;5137481;28;20057;-57
2023/03/09 05:46:14;;;;;;;4.70;3.17;;;;;;;0.04;100.00;96683.84;5136772;28;20050;-57
2023/03/09 05:48:41;;;;;;;6.40;3.30;;;;;;;-0.01;100.00;96619.47;5137161;27;20332;-64
2023/03/09 05:51:09;;;;;;;9.55;3.60;;;;;;;-0.09;100.00;96591.63;5137143;28;20047;-62
2023/03/09 05:53:36;;;;;;;7.03;3.88;;;;;;;0.15;100.00;96582.44;5137042;28;20043;-59
2023/03/09 05:56:04;;;;;;;10.32;3.28;;;;;;;0.13;100.00;96543.50;5137023;27;20108;-58
2023/03/09 05:58:30;;;;;;;12.88;3.60;;;;;;;0.22;100.00;96512.50;5136960;28;20332;-59
2023/03/09 06:00:56;;;;;;;9.38;3.63;;;;;;;0.37;100.00;96496.56;5138495;27;20336;-61
2023/03/09 06:03:23;;;;;;;7.75;4.20;;;;;;;0.35;100.00;96467.25;5140797;28;20076;-65
2023/03/09 06:05:58;;;;;;;7.35;3.83;;;;;;;0.33;100.00;96447.97;5140691;27;20092;-54
2023/03/09 06:08:25;;;;;;;7.32;2.85;;;;;;;0.42;100.00;96420.75;5140329;27;20103;-53
2023/03/09 06:10:51;;;;;;;9.18;3.35;;;;;;;0.44;100.00;96421.97;5140758;28;20453;-64
2023/03/09 06:13:17;;;;;;;8.02;3.75;;;;;;;0.41;100.00;96411.91;5140542;27;20066;-70
2023/03/09 06:15:44;;;;;;;7.57;3.20;;;;;;;0.58;100.00;96409.81;5140405;28;20047;-63
2023/03/09 06:18:10;;;;;;;6.72;3.38;;;;;;;0.52;100.00;96374.28;5140662;28;20058;-66
2023/03/09 06:20:38;;;;;;;8.65;3.92;;;;;;;0.70;100.00;96363.72;5140301;27;20315;-57
2023/03/09 06:23:04;;;;;;;9.48;3.50;;;;;;;0.64;100.00;96346.34;5140334;28;20058;-62
2023/03/09 06:25:31;;;;;;;6.78;2.92;;;;;;;0.81;100.00;96329.56;5140367;27;20091;-65
2023/03/09 06:27:57;;;;;;;6.68;3.10;;;;;;;0.84;100.00;96318.03;5140260;27;20047;-66
2023/03/09 06:30:26;;;;;;;6.03;3.25;;;;;;;0.76;100.00;96319.09;5140104;27;20081;-59
2023/03/09 06:32:53;;;;;;;2.35;1.83;;;;;;;0.87;100.00;96330.78;5140861;28;20048;-65
2023/03/09 06:35:19;;;;;;;5.78;2.50;;;;;;;0.84;100.00;96336.91;5139794;27;20047;-58
2023/03/09 06:37:46;;;;;;;5.45;2.45;;;;;;;0.98;100.00;96349.75;5139628;28;20395;-60
2023/03/09 06:40:13;;;;;;;10.00;3.42;;;;;;;0.99;100.00;96358.63;5139708;27;20051;-60
2023/03/09 06:42:40;;;;;;;2.72;2.10;;;;;;;0.92;100.00;96395.16;5140226;27;20051;-63
2023/03/09 06:45:07;;;;;;;2.65;2.33;;;;;;;0.72;100.00;96439.63;5139771;27;20051;-64
2023/03/09 06:47:34;;;;;;;4.15;1.95;;;;;;;0.99;100.00;96451.13;5139975;28;20349;-63
2023/03/09 06:50:00;;;;;;;3.58;1.98;;;;;;;1.02;100.00;96471.97;5139669;27;20047;-57
2023/03/09 06:52:26;;;;;;;4.40;2.40;;;;;;;1.10;100.00;96481.72;5139598;27;20043;-63
2023/03/09 06:54:53;;;;;;;7.38;2.58;;;;;;;1.08;100.00;96491.31;5139894;28;20363;-62
2023/03/09 06:57:19;;;;;;;2.33;1.65;;;;;;;1.31;100.00;96493.88;5139679;28;20047;-62
2023/03/09 06:59:46;;;;;;;3.05;2.35;;;;;;;1.41;100.00;96522.91;5139792;27;20042;-62
2023/03/09 07:02:13;;;;;;;3.55;2.10;;;;;;;1.29;100.00;96544.75;5139674;27;20047;-65
2023/03/09 07:04:40;;;;;;;6.07;2.00;;;;;;;1.17;100.00;96548.47;5140060;27;20169;-63
2023/03/09 07:07:07;;;;;;;6.15;2.10;;;;;;;1.23;100.00;96565.88;5139533;27;20056;-58
2023/03/09 07:09:34;;;;;;;4.05;2.22;;;;;;;1.17;100.00;96586.25;5139968;28;20051;-66
2023/03/09 07:12:00;;;;;;;5.20;2.70;;;;;;;1.20;100.00;96576.63;5138327;27;20138;-68
2023/03/09 07:14:27;;;;;;;2.67;1.80;;;;;;;0.96;100.00;96584.03;5139598;27;20122;-69
2023/03/09 07:16:55;;;;;;;4.20;2.05;;;;;;;0.96;100.00;96580.56;5139817;27;20130;-69
2023/03/09 07:19:22;;;;;;;3.20;2.13;;;;;;;1.01;100.00;96585.66;5139497;28;20043;-60
2023/03/09 07:21:49;;;;;;;5.93;2.53;;;;;;;1.11;100.00;96603.91;5139800;27;20140;-67
2023/03/09 07:24:16;;;;;;;3.58;2.50;;;;;;;1.10;100.00;96599.63;5139072;28;20047;-61
2023/03/09 07:26:42;;;;;;;4.80;2.10;;;;;;;1.06;100.00;96583.41;5139502;28;20047;-69
2023/03/09 07:29:09;;;;;;;3.70;2.63;;;;;;;0.80;100.00;96605.78;5139464;27;20047;-63
2023/03/09 07:31:35;;;;;;;7.55;2.80;;;;;;;1.01;100.00;96613.41;5139731;27;20138;-64
2023/03/09 07:34:02;;;;;;;5.75;2.72;;;;;;;1.15;100.00;96623.63;5139082;27;20404;-69
2023/03/09 07:36:28;;;;;;;279.38;21.02;;;;;;;1.06;100.00;96656.25;5139637;27;20047;-69
2023/03/09 07:38:54;;;;;;;41.08;4.10;;;;;;;1.07;100.00;96687.50;5139189;28;20104;-57
2023/03/09 07:41:20;;;;;;;62.10;5.82;;;;;;;0.99;100.00;96710.09;5139065;27;20297;-60
2023/03/09 07:43:47;;;;;;;12.75;2.40;;;;;;;1.03;100.00;96675.84;5139008;27;20047;-58
2023/03/09 07:46:15;;;;;;;4.85;2.28;;;;;;;1.13;100.00;96672.56;5138987;28;20332;-67
2023/03/09 07:48:42;;;;;;;4.38;1.85;;;;;;;1.56;100.00;96689.31;5139218;27;20047;-67
2023/03/09 07:51:10;;;;;;;8.43;2.28;;;;;;;1.71;100.00;96698.41;5138963;28;20061;-68
2023/03/09 07:53:39;;;;;;;9.68;2.22;;;;;;;1.78;100.00;96695.78;5139284;27;20059;-61
2023/03/09 07:56:07;;;;;;;3.85;1.98;;;;;;;1.87;100.00;96742.22;5138756;28;20051;-63
2023/03/09 07:58:35;;;;;;;9.07;2.05;;;;;;;2.03;100.00;96766.38;5139282;27;20046;-63
2023/03/09 08:01:02;;;;;;;3.92;2.10;;;;;;;2.03;100.00;96757.47;5138752;28;20058;-61
2023/03/09 08:03:29;;;;;;;7.13;2.08;;;;;;;2.10;100.00;96774.56;5139151;27;20084;-66
2023/03/09 08:05:56;;;;;;;3.67;1.73;;;;;;;2.19;100.00;96801.28;5138381;27;20044;-57
2023/03/09 08:08:23;;;;;;;13.05;5.97;;;;;;;2.02;100.00;96821.53;5138816;27;20043;-61
2023/03/09 08:10:50;;;;;;;5.38;2.13;;;;;;;2.01;100.00;96830.03;5138938;28;20065;-71
2023/03/09 08:13:16;;;;;;;8.25;2.22;;;;;;;2.15;100.00;96854.53;5138403;27;20053;-68
2023/03/09 08:15:43;;;;;;;3.78;2.08;;;;;;;1.78;100.00;96878.72;5138584;27;20396;-66
2023/03/09 08:18:09;;;;;;;8.70;1.90;;;;;;;1.85;100.00;96906.59;5138566;27;20058;-65
2023/03/09 08:20:36;;;;;;;2.13;1.70;;;;;;;1.82;100.00;96926.25;5139071;27;20051;-64
2023/03/09 08:23:03;;;;;;;4.63;1.20;;;;;;;1.69;100.00;96951.88;5139975;27;20466;-70
2023/03/09 08:25:30;;;;;;;3.88;1.23;;;;;;;2.27;100.00;96969.81;5140075;28;20043;-69
2023/03/09 08:27:57;;;;;;;7.05;1.48;;;;;;;3.36;100.00;96987.81;5138479;27;20420;-68
2023/03/09 08:30:23;;;;;;;7.72;1.33;;;;;;;4.42;89.11;97021.72;5138933;27;20051;-72
2023/03/09 08:32:51;;;;;;;2.22;1.52;;;;;;;4.80;83.26;97039.44;5138589;27;20061;-62
2023/03/09 08:35:18;;;;;;;2.78;1.13;;;;;;;5.32;77.06;97050.94;5138534;27;20047;-64
2023/03/09 08:37:45;;;;;;;2.95;1.50;;;;;;;5.24;72.39;97046.66;5138135;27;20055;-67
2023/03/09 08:40:13;;;;;;;4.53;1.33;;;;;;;4.70;72.55;97040.94;5138203;27;20055;-63
2023/03/09 08:42:40;;;;;;;3.03;1.40;;;;;;;4.08;70.59;97048.19;5138331;27;20047;-59
2023/03/09 08:45:08;;;;;;;6.38;1.20;;;;;;;4.67;71.65;97044.41;5137813;27;20549;-66
2023/03/09 08:47:35;;;;;;;1.55;1.02;;;;;;;5.17;69.34;97054.78;5138014;28;20047;-62
2023/03/09 08:50:01;;;;;;;4.55;1.23;;;;;;;5.45;67.18;97048.69;5137929;28;20122;-70
2023/03/09 08:52:27;;;;;;;3.20;1.30;;;;;;;5.50;67.55;97052.97;5137752;28;20047;-58
2023/03/09 08:54:55;;;;;;;3.22;1.10;;;;;;;5.72;65.81;97051.88;5138044;27;20088;-68
2023/03/09 08:57:22;;;;;;;2.15;1.15;;;;;;;5.71;62.44;97057.72;5138172;27;20104;-65
2023/03/09 08:59:49;;;;;;;4.20;1.15;;;;;;;5.42;63.21;97055.66;5137781;27;20188;-59
2023/03/09 09:02:15;;;;;;;4.57;1.10;;;;;;;5.61;62.32;97059.22;5137936;27;20047;-64
2023/03/09 09:04:41;;;;;;;1.67;0.90;;;;;;;5.69;60.76;97058.09;5137822;27;20294;-63
2023/03/09 09:07:08;;;;;;;2.42;1.17;;;;;;;5.74;61.00;97067.81;5137536;27;20138;-60
2023/03/09 09:09:34;;;;;;;1.70;0.93;;;;;;;5.66;61.38;97059.66;5137592;27;20053;-61
2023/03/09 09:12:00;;;;;;;2.95;1.30;;;;;;;5.04;60.76;97064.41;5137571;27;20055;-58
2023/03/09 09:14:27;;;;;;;1.67;1.35;;;;;;;5.43;62.33;97056.44;5137626;27;20061;-66
2023/03/09 09:16:54;;;;;;;4.13;1.48;;;;;;;5.59;63.30;97065.03;5137372;27;20058;-62
2023/03/09 09:19:21;;;;;;;2.58;1.10;;;;;;;5.63;60.51;97073.19;5137761;28;20421;-55
2023/03/09 09:21:48;;;;;;;2.97;1.25;;;;;;;5.60;58.95;97082.16;5137379;27;20061;-62
2023/03/09 09:24:14;;;;;;;1.90;1.17;;;;;;;5.10;59.12;97077.25;5137646;27;20412;-60
2023/03/09 09:26:41;;;;;;;2.35;1.40;;;;;;;4.62;59.96;97084.66;5137305;28;20055;-56
2023/03/09 09:29:08;;;;;;;3.90;1.48;;;;;;;4.71;60.80;97082.41;5137685;27;20042;-56
2023/03/09 09:31:34;;;;;;;1.58;1.10;;;;;;;4.70;61.17;97086.28;5137446;28;20211;-60
2023/03/09 09:34:01;;;;;;;2.45;1.00;;;;;;;4.52;59.45;97082.66;5136955;27;20066;-61
2023/03/09 09:36:28;;;;;;;3.72;1.38;;;;;;;4.12;62.80;97067.97;5136565;27;20043;-60
2023/03/09 09:38:54;;;;;;;2.88;1.00;;;;;;;4.36;59.67;97075.53;5136947;27;20051;-66
2023/03/09 09:41:26;;;;;;;1.67;1.10;;;;;;;5.32;60.46;97074.63;5137021;27;20059;-67
2023/03/09 09:43:59;;;;;;;1.90;1.08;;;;;;;6.01;57.21;97084.63;5137007;27;20134;-59
2023/03/09 09:46:28;;;;;;;3.22;1.35;;;;;;;6.40;56.29;97083.88;5137550;27;20080;-67
2023/03/09 09:48:55;;;;;;;2.05;0.90;;;;;;;6.61;55.09;97081.19;5137525;27;20306;-62
2023/03/09 09:51:41;;;;;;;5.03;1.00;;;;;;;5.57;54.39;97078.25;5138303;28;20330;-69
2023/03/09 09:54:14;;;;;;;1.25;1.00;;;;;;;5.58;52.87;97082.50;5137461;28;20047;-64
2023/03/09 09:56:47;;;;;;;2.95;0.90;;;;;;;5.45;54.52;97078.56;5137140;27;20258;-59
2023/03/09 09:59:19;;;;;;;6.07;1.43;;;;;;;5.63;52.68;97081.34;5137736;27;20142;-61
2023/03/09 10:01:51;;;;;;;2.03;1.40;;;;;;;5.90;54.34;97088.06;5136525;27;20332;-64
2023/03/09 10:04:26;;;;;;;0.95;0.90;;;;;;;6.41;53.08;97086.25;5137294;27;20062;-64
2023/03/09 10:06:57;;;;;;;1.98;0.80;;;;;;;6.89;51.73;97088.56;5137218;27;20058;-66
2023/03/09 10:09:26;;;;;;;1.52;0.95;;;;;;;6.69;51.63;97090.13;5136680;28;20112;-63
2023/03/09 10:11:55;;;;;;;1.58;1.00;;;;;;;7.37;49.48;97088.09;5137320;27;20305;-60
2023/03/09 10:14:28;;;;;;;2.25;0.90;;;;;;;6.34;50.63;97089.75;5136720;28;20051;-64
2023/03/09 10:16:59;;;;;;;1.98;0.90;;;;;;;6.19;49.25;97090.88;5136341;27;20051;-61
2023/03/09 10:19:31;;;;;;;1.73;0.65;;;;;;;6.24;50.29;97081.56;5136829;28;20113;-59
2023/03/09 10:22:01;;;;;;;1.80;1.10;;;;;;;6.00;50.33;97089.28;5136469;27;20047;-61
2023/03/09 10:24:30;;;;;;;2.00;1.30;;;;;;;5.63;50.58;97089.50;5136884;27;20043;-58
2023/03/09 10:27:00;;;;;;;0.82;0.82;;;;;;;5.40;51.26;97100.69;5136500;27;20066;-58
2023/03/09 10:29:39;;;;;;;1.27;0.88;;;;;;;5.64;50.37;97108.16;5136836;27;20404;-58
2023/03/09 10:32:14;;;;;;;0.60;0.60;;;;;;;5.62;49.62;97098.84;5136323;27;20059;-64
2023/03/09 10:34:52;;;;;;;2.22;0.90;;;;;;;5.61;48.31;97102.72;5136264;27;20062;-63
2023/03/09 10:37:23;;;;;;;2.28;1.10;;;;;;;5.69;49.72;97090.69;5136437;28;20138;-66
2023/03/09 10:39:49;;;;;;;0.93;0.80;;;;;;;5.92;49.85;97093.13;5136492;27;20051;-57
2023/03/09 10:42:19;;;;;;;5.88;0.80;;;;;;;5.69;48.50;97089.94;5136523;28;20058;-63
2023/03/09 10:44:58;;;;;;;1.00;0.73;;;;;;;6.24;49.91;97100.59;5136216;28;20048;-62
2023/03/09 10:47:24;;;;;;;1.15;0.70;;;;;;;6.06;49.13;97103.28;5138648;27;20329;-58
2023/03/09 10:50:12;;;;;;;1.23;1.13;;;;;;;6.19;49.24;97109.91;5139499;28;20054;-66
2023/03/09 10:52:38;;;;;;;1.90;0.80;;;;;;;6.08;49.20;97106.41;5139391;27;20051;-59
2023/03/09 10:55:32;;;;;;;1.45;0.75;;;;;;;5.99;49.43;97108.69;5139867;27;20061;-63
2023/03/09 10:58:00;;;;;;;2.28;1.30;;;;;;;6.06;47.76;97108.72;5139700;28;20043;-58
2023/03/09 11:00:26;;;;;;;1.50;1.10;;;;;;;5.39;49.20;97102.59;5139624;28;20107;-58
2023/03/09 11:02:55;;;;;;;1.55;0.82;;;;;;;5.31;49.66;97102.97;5139524;27;20305;-60
2023/03/09 11:05:23;;;;;;;3.45;0.85;;;;;;;5.55;49.33;97113.16;5139710;27;20047;-61
2023/03/09 11:07:52;;;;;;;0.73;0.73;;;;;;;5.50;49.16;97105.41;5139345;28;20050;-70
2023/03/09 11:10:24;;;;;;;1.05;0.98;;;;;;;5.25;48.93;97101.75;5139836;28;20054;-61
2023/03/09 11:12:50;;;;;;;1.52;0.90;;;;;;;5.04;49.02;97105.91;5139478;28;20070;-67
2023/03/09 11:15:27;;;;;;;1.50;0.90;;;;;;;5.19;49.03;97102.13;5140013;27;20115;-63
2023/03/09 11:17:54;;;;;;;1.08;0.70;;;;;;;5.06;50.05;97108.25;5139564;28;20130;-60
2023/03/09 11:20:31;;;;;;;2.70;1.05;;;;;;;5.15;50.06;97114.91;5139688;27;20328;-66
2023/03/09 11:23:03;;;;;;;4.53;0.95;;;;;;;5.47;49.60;97106.16;5139950;27;20047;-69
2023/03/09 11:25:45;;;;;;;0.85;0.77;;;;;;;5.31;50.20;97103.75;5139181;28;20047;-64
2023/03/09 11:28:21;;;;;;;1.27;0.82;;;;;;;5.27;50.54;97113.03;5139609;28;20050;-69
2023/03/09 11:30:51;;;;;;;2.58;0.75;;;;;;;5.13;50.76;97114.53;5139426;27;20073;-67
2023/03/09 11:33:19;;;;;;;3.10;0.90;;;;;;;4.76;51.67;97114.63;5139021;28;20055;-58
2023/03/09 11:35:49;;;;;;;3.03;0.93;;;;;;;5.03;50.63;97114.44;5139266;27;20102;-58